sensor_id;sensor_type;location;lat;lon;timestamp;P1;durP1;ratioP1;P2;durP2;ratioP2
72728;SDS011;60843;52.062;4.508;2024-03-29T00:00:15;3.10;;;0.60;;
72728;SDS011;60843;52.062;4.508;2024-03-29T00:02:43;2.63;;;0.55;;
72728;SDS011;60843;52.062;4.508;2024-03-29T00:05:09;7.15;;;1.20;;
72728;SDS011;60843;52.062;4.508;2024-03-29T00:07:34;3.15;;;0.98;;
72728;SDS011;60843;52.062;4.508;2024-03-29T00:10:00;0.52;;;0.30;;
72728;SDS011;60843;52.062;4.508;2024-03-29T00:12:34;4.20;;;0.60;;
72728;SDS011;60843;52.062;4.508;2024-03-29T00:15:10;4.53;;;0.70;;
72728;SDS011;60843;52.062;4.508;2024-03-29T00:17:36;4.55;;;0.52;;
72728;SDS011;60843;52.062;4.508;2024-03-29T00:20:02;2.45;;;0.60;;
72728;SDS011;60843;52.062;4.508;2024-03-29T00:22:38;3.13;;;0.75;;
72728;SDS011;60843;52.062;4.508;2024-03-29T00:25:04;0.93;;;0.40;;
72728;SDS011;60843;52.062;4.508;2024-03-29T00:27:30;3.72;;;0.80;;
72728;SDS011;60843;52.062;4.508;2024-03-29T00:29:59;4.47;;;0.50;;
72728;SDS011;60843;52.062;4.508;2024-03-29T00:32:25;2.53;;;0.40;;
72728;SDS011;60843;52.062;4.508;2024-03-29T00:34:54;3.90;;;0.63;;
72728;SDS011;60843;52.062;4.508;2024-03-29T00:37:21;2.63;;;0.40;;
72728;SDS011;60843;52.062;4.508;2024-03-29T00:39:47;5.38;;;0.77;;
72728;SDS011;60843;52.062;4.508;2024-03-29T00:45:22;6.38;;;0.57;;
72728;SDS011;60843;52.062;4.508;2024-03-29T00:47:48;2.38;;;0.50;;
72728;SDS011;60843;52.062;4.508;2024-03-29T00:50:17;6.28;;;0.60;;
72728;SDS011;60843;52.062;4.508;2024-03-29T00:52:43;0.73;;;0.22;;
72728;SDS011;60843;52.062;4.508;2024-03-29T00:55:08;2.47;;;0.57;;
72728;SDS011;60843;52.062;4.508;2024-03-29T00:57:40;3.28;;;0.30;;
72728;SDS011;60843;52.062;4.508;2024-03-29T01:00:09;2.15;;;0.30;;
72728;SDS011;60843;52.062;4.508;2024-03-29T01:02:37;3.97;;;0.77;;
72728;SDS011;60843;52.062;4.508;2024-03-29T01:05:03;1.88;;;0.50;;
72728;SDS011;60843;52.062;4.508;2024-03-29T01:07:29;6.10;;;0.60;;
72728;SDS011;60843;52.062;4.508;2024-03-29T01:10:00;2.42;;;0.32;;
72728;SDS011;60843;52.062;4.508;2024-03-29T01:12:33;2.50;;;0.38;;
72728;SDS011;60843;52.062;4.508;2024-03-29T01:15:03;6.00;;;0.82;;
72728;SDS011;60843;52.062;4.508;2024-03-29T01:17:32;4.20;;;0.52;;
72728;SDS011;60843;52.062;4.508;2024-03-29T01:19:58;6.30;;;0.70;;
72728;SDS011;60843;52.062;4.508;2024-03-29T01:27:37;3.42;;;0.68;;
72728;SDS011;60843;52.062;4.508;2024-03-29T01:30:05;3.85;;;0.43;;
72728;SDS011;60843;52.062;4.508;2024-03-29T01:33:01;3.65;;;0.60;;
72728;SDS011;60843;52.062;4.508;2024-03-29T01:35:32;8.38;;;0.60;;
72728;SDS011;60843;52.062;4.508;2024-03-29T01:37:58;3.03;;;0.63;;
72728;SDS011;60843;52.062;4.508;2024-03-29T01:40:23;3.50;;;0.60;;
72728;SDS011;60843;52.062;4.508;2024-03-29T01:42:53;3.10;;;0.80;;
72728;SDS011;60843;52.062;4.508;2024-03-29T01:45:26;2.55;;;0.52;;
72728;SDS011;60843;52.062;4.508;2024-03-29T01:47:53;4.10;;;0.75;;
72728;SDS011;60843;52.062;4.508;2024-03-29T01:50:19;1.88;;;0.50;;
72728;SDS011;60843;52.062;4.508;2024-03-29T01:52:47;2.85;;;0.50;;
72728;SDS011;60843;52.062;4.508;2024-03-29T01:55:17;6.10;;;0.63;;
72728;SDS011;60843;52.062;4.508;2024-03-29T01:57:46;2.40;;;0.50;;
72728;SDS011;60843;52.062;4.508;2024-03-29T02:00:11;2.58;;;0.60;;
72728;SDS011;60843;52.062;4.508;2024-03-29T02:02:37;5.03;;;0.70;;
72728;SDS011;60843;52.062;4.508;2024-03-29T02:05:03;5.60;;;0.52;;
72728;SDS011;60843;52.062;4.508;2024-03-29T02:07:29;3.17;;;0.45;;
72728;SDS011;60843;52.062;4.508;2024-03-29T02:09:55;1.88;;;0.43;;
72728;SDS011;60843;52.062;4.508;2024-03-29T02:12:24;5.32;;;0.82;;
72728;SDS011;60843;52.062;4.508;2024-03-29T02:14:50;4.20;;;0.70;;
72728;SDS011;60843;52.062;4.508;2024-03-29T02:17:16;1.67;;;0.50;;
72728;SDS011;60843;52.062;4.508;2024-03-29T02:19:41;2.55;;;0.38;;
72728;SDS011;60843;52.062;4.508;2024-03-29T02:22:07;2.70;;;0.45;;
72728;SDS011;60843;52.062;4.508;2024-03-29T02:24:33;5.28;;;0.65;;
72728;SDS011;60843;52.062;4.508;2024-03-29T02:26:58;2.80;;;0.80;;
72728;SDS011;60843;52.062;4.508;2024-03-29T02:29:24;1.63;;;0.70;;
72728;SDS011;60843;52.062;4.508;2024-03-29T02:31:50;4.82;;;0.90;;
72728;SDS011;60843;52.062;4.508;2024-03-29T02:34:16;4.22;;;0.75;;
72728;SDS011;60843;52.062;4.508;2024-03-29T02:36:42;4.22;;;0.47;;
72728;SDS011;60843;52.062;4.508;2024-03-29T02:39:09;6.78;;;0.90;;
72728;SDS011;60843;52.062;4.508;2024-03-29T02:41:35;3.30;;;0.50;;
72728;SDS011;60843;52.062;4.508;2024-03-29T02:44:00;2.38;;;0.35;;
72728;SDS011;60843;52.062;4.508;2024-03-29T02:46:32;2.72;;;0.73;;
72728;SDS011;60843;52.062;4.508;2024-03-29T02:48:58;2.58;;;0.65;;
72728;SDS011;60843;52.062;4.508;2024-03-29T02:51:23;1.27;;;0.38;;
72728;SDS011;60843;52.062;4.508;2024-03-29T02:53:49;0.85;;;0.40;;
72728;SDS011;60843;52.062;4.508;2024-03-29T02:56:15;1.10;;;0.35;;
72728;SDS011;60843;52.062;4.508;2024-03-29T02:58:46;2.85;;;0.60;;
72728;SDS011;60843;52.062;4.508;2024-03-29T03:01:11;1.85;;;0.65;;
72728;SDS011;60843;52.062;4.508;2024-03-29T03:06:02;3.63;;;0.52;;
72728;SDS011;60843;52.062;4.508;2024-03-29T03:08:31;3.38;;;0.55;;
72728;SDS011;60843;52.062;4.508;2024-03-29T03:11:15;1.73;;;0.38;;
72728;SDS011;60843;52.062;4.508;2024-03-29T03:13:41;2.97;;;0.50;;
72728;SDS011;60843;52.062;4.508;2024-03-29T03:16:06;3.17;;;0.50;;
72728;SDS011;60843;52.062;4.508;2024-03-29T03:18:32;3.05;;;0.57;;
72728;SDS011;60843;52.062;4.508;2024-03-29T03:20:58;2.70;;;0.60;;
72728;SDS011;60843;52.062;4.508;2024-03-29T03:23:24;3.08;;;0.80;;
72728;SDS011;60843;52.062;4.508;2024-03-29T03:25:58;3.30;;;0.50;;
72728;SDS011;60843;52.062;4.508;2024-03-29T03:28:24;1.45;;;0.40;;
72728;SDS011;60843;52.062;4.508;2024-03-29T03:30:53;0.98;;;0.30;;
72728;SDS011;60843;52.062;4.508;2024-03-29T03:33:19;1.60;;;0.22;;
72728;SDS011;60843;52.062;4.508;2024-03-29T03:35:45;2.45;;;0.55;;
72728;SDS011;60843;52.062;4.508;2024-03-29T03:38:11;1.40;;;0.43;;
72728;SDS011;60843;52.062;4.508;2024-03-29T03:40:37;1.70;;;0.50;;
72728;SDS011;60843;52.062;4.508;2024-03-29T03:43:04;0.50;;;0.30;;
72728;SDS011;60843;52.062;4.508;2024-03-29T03:45:33;3.13;;;0.40;;
72728;SDS011;60843;52.062;4.508;2024-03-29T03:48:11;2.35;;;0.30;;
72728;SDS011;60843;52.062;4.508;2024-03-29T03:50:48;4.10;;;0.40;;
72728;SDS011;60843;52.062;4.508;2024-03-29T03:53:36;0.73;;;0.30;;
72728;SDS011;60843;52.062;4.508;2024-03-29T03:56:02;1.17;;;0.28;;
72728;SDS011;60843;52.062;4.508;2024-03-29T03:58:28;1.08;;;0.30;;
72728;SDS011;60843;52.062;4.508;2024-03-29T04:00:54;1.73;;;0.25;;
72728;SDS011;60843;52.062;4.508;2024-03-29T04:03:19;0.47;;;0.20;;
72728;SDS011;60843;52.062;4.508;2024-03-29T04:05:45;1.77;;;0.50;;
72728;SDS011;60843;52.062;4.508;2024-03-29T04:08:11;1.40;;;0.40;;
72728;SDS011;60843;52.062;4.508;2024-03-29T04:13:46;0.50;;;0.10;;
72728;SDS011;60843;52.062;4.508;2024-03-29T04:16:11;0.20;;;0.20;;
72728;SDS011;60843;52.062;4.508;2024-03-29T04:18:37;1.30;;;0.30;;
72728;SDS011;60843;52.062;4.508;2024-03-29T04:21:03;1.77;;;0.40;;
72728;SDS011;60843;52.062;4.508;2024-03-29T04:23:29;0.70;;;0.25;;
72728;SDS011;60843;52.062;4.508;2024-03-29T04:25:56;0.10;;;0.10;;
72728;SDS011;60843;52.062;4.508;2024-03-29T04:28:25;0.85;;;0.38;;
72728;SDS011;60843;52.062;4.508;2024-03-29T04:30:54;0.55;;;0.30;;
72728;SDS011;60843;52.062;4.508;2024-03-29T04:33:21;1.73;;;0.20;;
72728;SDS011;60843;52.062;4.508;2024-03-29T04:36:03;1.88;;;0.22;;
72728;SDS011;60843;52.062;4.508;2024-03-29T04:38:30;0.50;;;0.28;;
72728;SDS011;60843;52.062;4.508;2024-03-29T04:40:56;0.75;;;0.20;;
72728;SDS011;60843;52.062;4.508;2024-03-29T04:43:23;3.55;;;0.40;;
72728;SDS011;60843;52.062;4.508;2024-03-29T04:45:50;0.45;;;0.17;;
72728;SDS011;60843;52.062;4.508;2024-03-29T04:48:16;1.58;;;0.30;;
72728;SDS011;60843;52.062;4.508;2024-03-29T04:50:42;0.55;;;0.35;;
72728;SDS011;60843;52.062;4.508;2024-03-29T04:53:08;1.30;;;0.22;;
72728;SDS011;60843;52.062;4.508;2024-03-29T04:55:34;1.60;;;0.40;;
72728;SDS011;60843;52.062;4.508;2024-03-29T04:58:00;2.53;;;0.57;;
72728;SDS011;60843;52.062;4.508;2024-03-29T05:00:27;0.40;;;0.20;;
72728;SDS011;60843;52.062;4.508;2024-03-29T05:02:53;0.50;;;0.25;;
72728;SDS011;60843;52.062;4.508;2024-03-29T05:05:19;0.65;;;0.30;;
72728;SDS011;60843;52.062;4.508;2024-03-29T05:07:44;0.95;;;0.25;;
72728;SDS011;60843;52.062;4.508;2024-03-29T05:10:10;0.38;;;0.22;;
72728;SDS011;60843;52.062;4.508;2024-03-29T05:12:36;0.88;;;0.30;;
72728;SDS011;60843;52.062;4.508;2024-03-29T05:15:02;1.08;;;0.20;;
72728;SDS011;60843;52.062;4.508;2024-03-29T05:17:27;1.40;;;0.30;;
72728;SDS011;60843;52.062;4.508;2024-03-29T05:19:54;1.90;;;0.40;;
72728;SDS011;60843;52.062;4.508;2024-03-29T05:22:20;0.63;;;0.13;;
72728;SDS011;60843;52.062;4.508;2024-03-29T05:24:52;0.52;;;0.20;;
72728;SDS011;60843;52.062;4.508;2024-03-29T05:27:19;0.95;;;0.20;;
72728;SDS011;60843;52.062;4.508;2024-03-29T05:29:45;0.65;;;0.28;;
72728;SDS011;60843;52.062;4.508;2024-03-29T05:32:11;1.45;;;0.45;;
72728;SDS011;60843;52.062;4.508;2024-03-29T05:34:37;1.52;;;0.22;;
72728;SDS011;60843;52.062;4.508;2024-03-29T05:37:02;0.20;;;0.20;;
72728;SDS011;60843;52.062;4.508;2024-03-29T05:39:28;3.35;;;0.20;;
72728;SDS011;60843;52.062;4.508;2024-03-29T05:41:55;0.35;;;0.10;;
72728;SDS011;60843;52.062;4.508;2024-03-29T05:44:25;1.02;;;0.20;;
72728;SDS011;60843;52.062;4.508;2024-03-29T05:46:50;2.30;;;0.40;;
72728;SDS011;60843;52.062;4.508;2024-03-29T05:49:16;1.17;;;0.22;;
72728;SDS011;60843;52.062;4.508;2024-03-29T05:51:42;0.43;;;0.22;;
72728;SDS011;60843;52.062;4.508;2024-03-29T05:54:07;0.52;;;0.30;;
72728;SDS011;60843;52.062;4.508;2024-03-29T05:56:33;1.92;;;0.20;;
72728;SDS011;60843;52.062;4.508;2024-03-29T05:58:58;1.30;;;0.35;;
72728;SDS011;60843;52.062;4.508;2024-03-29T06:01:24;0.90;;;0.20;;
72728;SDS011;60843;52.062;4.508;2024-03-29T06:03:50;0.43;;;0.43;;
72728;SDS011;60843;52.062;4.508;2024-03-29T06:09:19;0.68;;;0.20;;
72728;SDS011;60843;52.062;4.508;2024-03-29T06:11:45;1.70;;;0.25;;
72728;SDS011;60843;52.062;4.508;2024-03-29T06:14:11;1.45;;;0.25;;
72728;SDS011;60843;52.062;4.508;2024-03-29T06:16:51;0.63;;;0.25;;
72728;SDS011;60843;52.062;4.508;2024-03-29T06:19:36;0.45;;;0.30;;
72728;SDS011;60843;52.062;4.508;2024-03-29T06:22:02;0.75;;;0.20;;
72728;SDS011;60843;52.062;4.508;2024-03-29T06:24:29;0.45;;;0.13;;
72728;SDS011;60843;52.062;4.508;2024-03-29T06:26:57;1.00;;;0.40;;
72728;SDS011;60843;52.062;4.508;2024-03-29T06:29:22;0.85;;;0.30;;
72728;SDS011;60843;52.062;4.508;2024-03-29T06:31:48;0.77;;;0.25;;
72728;SDS011;60843;52.062;4.508;2024-03-29T06:34:34;1.73;;;0.32;;
72728;SDS011;60843;52.062;4.508;2024-03-29T06:37:00;1.05;;;0.20;;
72728;SDS011;60843;52.062;4.508;2024-03-29T06:42:02;2.28;;;0.43;;
72728;SDS011;60843;52.062;4.508;2024-03-29T06:44:28;0.70;;;0.30;;
72728;SDS011;60843;52.062;4.508;2024-03-29T06:46:54;7.22;;;0.80;;
72728;SDS011;60843;52.062;4.508;2024-03-29T06:49:20;0.93;;;0.22;;
72728;SDS011;60843;52.062;4.508;2024-03-29T06:51:46;2.92;;;0.73;;
72728;SDS011;60843;52.062;4.508;2024-03-29T06:54:11;1.52;;;0.60;;
72728;SDS011;60843;52.062;4.508;2024-03-29T06:56:37;0.95;;;0.40;;
72728;SDS011;60843;52.062;4.508;2024-03-29T06:59:03;0.65;;;0.28;;
72728;SDS011;60843;52.062;4.508;2024-03-29T07:01:29;0.77;;;0.50;;
72728;SDS011;60843;52.062;4.508;2024-03-29T07:03:55;2.22;;;0.28;;
72728;SDS011;60843;52.062;4.508;2024-03-29T07:06:21;1.45;;;0.45;;
72728;SDS011;60843;52.062;4.508;2024-03-29T07:08:48;2.65;;;0.30;;
72728;SDS011;60843;52.062;4.508;2024-03-29T07:11:13;4.22;;;0.50;;
72728;SDS011;60843;52.062;4.508;2024-03-29T07:13:39;0.70;;;0.40;;
72728;SDS011;60843;52.062;4.508;2024-03-29T07:16:05;1.30;;;0.45;;
72728;SDS011;60843;52.062;4.508;2024-03-29T07:18:32;1.20;;;0.30;;
72728;SDS011;60843;52.062;4.508;2024-03-29T07:20:57;3.88;;;0.40;;
72728;SDS011;60843;52.062;4.508;2024-03-29T07:23:23;1.67;;;0.80;;
72728;SDS011;60843;52.062;4.508;2024-03-29T07:25:58;1.95;;;0.70;;
72728;SDS011;60843;52.062;4.508;2024-03-29T07:28:26;0.90;;;0.50;;
72728;SDS011;60843;52.062;4.508;2024-03-29T07:33:20;1.33;;;0.35;;
72728;SDS011;60843;52.062;4.508;2024-03-29T07:35:48;1.13;;;0.52;;
72728;SDS011;60843;52.062;4.508;2024-03-29T07:38:15;0.80;;;0.45;;
72728;SDS011;60843;52.062;4.508;2024-03-29T07:40:42;0.75;;;0.40;;
72728;SDS011;60843;52.062;4.508;2024-03-29T07:43:08;1.27;;;0.40;;
72728;SDS011;60843;52.062;4.508;2024-03-29T07:45:34;1.80;;;0.50;;
72728;SDS011;60843;52.062;4.508;2024-03-29T07:48:03;1.85;;;0.30;;
72728;SDS011;60843;52.062;4.508;2024-03-29T07:51:04;0.68;;;0.32;;
72728;SDS011;60843;52.062;4.508;2024-03-29T07:53:30;1.90;;;0.90;;
72728;SDS011;60843;52.062;4.508;2024-03-29T07:55:58;0.93;;;0.57;;
72728;SDS011;60843;52.062;4.508;2024-03-29T07:58:24;1.30;;;0.63;;
72728;SDS011;60843;52.062;4.508;2024-03-29T08:00:53;1.65;;;0.68;;
72728;SDS011;60843;52.062;4.508;2024-03-29T08:03:36;1.63;;;0.70;;
72728;SDS011;60843;52.062;4.508;2024-03-29T08:06:03;1.88;;;0.60;;
72728;SDS011;60843;52.062;4.508;2024-03-29T08:08:57;1.23;;;0.43;;
72728;SDS011;60843;52.062;4.508;2024-03-29T08:11:29;1.63;;;0.80;;
72728;SDS011;60843;52.062;4.508;2024-03-29T08:13:55;2.40;;;0.93;;
72728;SDS011;60843;52.062;4.508;2024-03-29T08:16:21;1.55;;;0.77;;
72728;SDS011;60843;52.062;4.508;2024-03-29T08:18:46;2.20;;;0.82;;
72728;SDS011;60843;52.062;4.508;2024-03-29T08:21:16;1.95;;;0.65;;
72728;SDS011;60843;52.062;4.508;2024-03-29T08:23:41;1.55;;;0.90;;
72728;SDS011;60843;52.062;4.508;2024-03-29T08:26:11;2.28;;;0.77;;
72728;SDS011;60843;52.062;4.508;2024-03-29T08:28:37;1.80;;;1.00;;
72728;SDS011;60843;52.062;4.508;2024-03-29T08:31:03;1.48;;;0.55;;
72728;SDS011;60843;52.062;4.508;2024-03-29T08:33:32;1.98;;;0.75;;
72728;SDS011;60843;52.062;4.508;2024-03-29T08:35:57;1.45;;;0.90;;
72728;SDS011;60843;52.062;4.508;2024-03-29T08:38:23;4.93;;;1.02;;
72728;SDS011;60843;52.062;4.508;2024-03-29T08:40:50;1.77;;;0.85;;
72728;SDS011;60843;52.062;4.508;2024-03-29T08:43:16;2.42;;;0.70;;
72728;SDS011;60843;52.062;4.508;2024-03-29T08:45:43;1.70;;;0.85;;
72728;SDS011;60843;52.062;4.508;2024-03-29T08:48:11;1.95;;;0.75;;
72728;SDS011;60843;52.062;4.508;2024-03-29T08:50:37;1.65;;;0.30;;
72728;SDS011;60843;52.062;4.508;2024-03-29T08:53:03;3.45;;;0.95;;
72728;SDS011;60843;52.062;4.508;2024-03-29T08:55:30;1.77;;;0.80;;
72728;SDS011;60843;52.062;4.508;2024-03-29T08:57:59;2.53;;;0.80;;
72728;SDS011;60843;52.062;4.508;2024-03-29T09:00:25;2.65;;;1.00;;
72728;SDS011;60843;52.062;4.508;2024-03-29T09:02:53;1.52;;;0.70;;
72728;SDS011;60843;52.062;4.508;2024-03-29T09:05:19;0.77;;;0.55;;
72728;SDS011;60843;52.062;4.508;2024-03-29T09:07:47;1.95;;;0.70;;
72728;SDS011;60843;52.062;4.508;2024-03-29T09:10:13;1.00;;;0.60;;
72728;SDS011;60843;52.062;4.508;2024-03-29T09:12:39;0.68;;;0.57;;
72728;SDS011;60843;52.062;4.508;2024-03-29T09:15:05;1.27;;;0.55;;
72728;SDS011;60843;52.062;4.508;2024-03-29T09:17:38;2.85;;;0.50;;
72728;SDS011;60843;52.062;4.508;2024-03-29T09:20:05;2.08;;;0.55;;
72728;SDS011;60843;52.062;4.508;2024-03-29T09:22:31;1.52;;;0.63;;
72728;SDS011;60843;52.062;4.508;2024-03-29T09:24:57;2.85;;;0.52;;
72728;SDS011;60843;52.062;4.508;2024-03-29T09:27:23;1.00;;;0.43;;
72728;SDS011;60843;52.062;4.508;2024-03-29T09:29:48;1.20;;;0.40;;
72728;SDS011;60843;52.062;4.508;2024-03-29T09:32:14;1.73;;;0.50;;
72728;SDS011;60843;52.062;4.508;2024-03-29T09:34:45;0.73;;;0.43;;
72728;SDS011;60843;52.062;4.508;2024-03-29T09:37:10;1.42;;;0.50;;
72728;SDS011;60843;52.062;4.508;2024-03-29T09:39:36;1.45;;;0.82;;
72728;SDS011;60843;52.062;4.508;2024-03-29T09:42:03;1.40;;;0.32;;
72728;SDS011;60843;52.062;4.508;2024-03-29T09:44:31;0.52;;;0.40;;
72728;SDS011;60843;52.062;4.508;2024-03-29T09:47:02;2.08;;;0.50;;
72728;SDS011;60843;52.062;4.508;2024-03-29T09:49:29;1.00;;;0.60;;
72728;SDS011;60843;52.062;4.508;2024-03-29T09:52:01;0.98;;;0.30;;
72728;SDS011;60843;52.062;4.508;2024-03-29T09:54:27;0.43;;;0.40;;
72728;SDS011;60843;52.062;4.508;2024-03-29T09:56:54;0.50;;;0.40;;
72728;SDS011;60843;52.062;4.508;2024-03-29T09:59:24;0.47;;;0.30;;
72728;SDS011;60843;52.062;4.508;2024-03-29T10:01:54;1.73;;;0.32;;
72728;SDS011;60843;52.062;4.508;2024-03-29T10:10:00;1.17;;;0.55;;
72728;SDS011;60843;52.062;4.508;2024-03-29T10:12:27;0.95;;;0.50;;
72728;SDS011;60843;52.062;4.508;2024-03-29T10:14:52;1.10;;;0.52;;
72728;SDS011;60843;52.062;4.508;2024-03-29T10:17:20;1.90;;;0.70;;
72728;SDS011;60843;52.062;4.508;2024-03-29T10:19:46;1.50;;;0.73;;
72728;SDS011;60843;52.062;4.508;2024-03-29T10:22:14;0.73;;;0.47;;
72728;SDS011;60843;52.062;4.508;2024-03-29T10:27:33;4.10;;;0.90;;
72728;SDS011;60843;52.062;4.508;2024-03-29T10:29:59;1.27;;;0.68;;
72728;SDS011;60843;52.062;4.508;2024-03-29T10:32:24;2.55;;;0.77;;
72728;SDS011;60843;52.062;4.508;2024-03-29T10:34:50;2.08;;;1.00;;
72728;SDS011;60843;52.062;4.508;2024-03-29T10:37:16;1.80;;;0.55;;
72728;SDS011;60843;52.062;4.508;2024-03-29T10:39:50;0.68;;;0.55;;
72728;SDS011;60843;52.062;4.508;2024-03-29T10:42:16;1.20;;;0.63;;
72728;SDS011;60843;52.062;4.508;2024-03-29T10:44:44;1.38;;;0.55;;
72728;SDS011;60843;52.062;4.508;2024-03-29T10:47:09;4.18;;;0.75;;
72728;SDS011;60843;52.062;4.508;2024-03-29T10:49:49;2.00;;;0.85;;
72728;SDS011;60843;52.062;4.508;2024-03-29T10:52:19;1.92;;;0.50;;
72728;SDS011;60843;52.062;4.508;2024-03-29T10:54:46;3.28;;;0.60;;
72728;SDS011;60843;52.062;4.508;2024-03-29T10:57:16;1.33;;;0.63;;
72728;SDS011;60843;52.062;4.508;2024-03-29T11:00:03;2.20;;;0.60;;
72728;SDS011;60843;52.062;4.508;2024-03-29T11:05:04;1.17;;;0.73;;
72728;SDS011;60843;52.062;4.508;2024-03-29T11:07:33;1.77;;;0.73;;
72728;SDS011;60843;52.062;4.508;2024-03-29T11:09:59;0.98;;;0.70;;
72728;SDS011;60843;52.062;4.508;2024-03-29T11:12:26;3.00;;;1.00;;
72728;SDS011;60843;52.062;4.508;2024-03-29T11:14:55;1.88;;;0.95;;
72728;SDS011;60843;52.062;4.508;2024-03-29T11:17:29;2.70;;;0.90;;
72728;SDS011;60843;52.062;4.508;2024-03-29T11:20:00;1.55;;;0.82;;
72728;SDS011;60843;52.062;4.508;2024-03-29T11:22:29;1.63;;;1.20;;
72728;SDS011;60843;52.062;4.508;2024-03-29T11:24:55;2.85;;;1.02;;
72728;SDS011;60843;52.062;4.508;2024-03-29T11:27:24;2.67;;;1.13;;
72728;SDS011;60843;52.062;4.508;2024-03-29T11:29:51;4.93;;;0.93;;
72728;SDS011;60843;52.062;4.508;2024-03-29T11:32:34;2.88;;;1.10;;
72728;SDS011;60843;52.062;4.508;2024-03-29T11:35:14;2.38;;;0.88;;
72728;SDS011;60843;52.062;4.508;2024-03-29T11:37:41;1.48;;;0.93;;
72728;SDS011;60843;52.062;4.508;2024-03-29T11:40:07;2.08;;;1.42;;
72728;SDS011;60843;52.062;4.508;2024-03-29T11:42:46;3.22;;;1.15;;
72728;SDS011;60843;52.062;4.508;2024-03-29T11:45:13;2.55;;;1.10;;
72728;SDS011;60843;52.062;4.508;2024-03-29T11:47:41;3.70;;;1.60;;
72728;SDS011;60843;52.062;4.508;2024-03-29T11:50:08;2.80;;;1.60;;
72728;SDS011;60843;52.062;4.508;2024-03-29T11:52:37;3.85;;;1.30;;
72728;SDS011;60843;52.062;4.508;2024-03-29T11:55:06;2.83;;;1.70;;
72728;SDS011;60843;52.062;4.508;2024-03-29T11:57:33;1.88;;;1.63;;
72728;SDS011;60843;52.062;4.508;2024-03-29T12:00:00;3.88;;;1.92;;
72728;SDS011;60843;52.062;4.508;2024-03-29T12:02:27;4.00;;;1.67;;
72728;SDS011;60843;52.062;4.508;2024-03-29T12:04:52;2.10;;;1.42;;
72728;SDS011;60843;52.062;4.508;2024-03-29T12:10:40;3.03;;;1.85;;
72728;SDS011;60843;52.062;4.508;2024-03-29T12:14:02;4.28;;;2.10;;
72728;SDS011;60843;52.062;4.508;2024-03-29T12:19:57;2.67;;;2.10;;
72728;SDS011;60843;52.062;4.508;2024-03-29T12:22:27;2.67;;;2.25;;
72728;SDS011;60843;52.062;4.508;2024-03-29T12:27:53;3.75;;;2.58;;
72728;SDS011;60843;52.062;4.508;2024-03-29T12:41:05;3.50;;;2.30;;
72728;SDS011;60843;52.062;4.508;2024-03-29T12:43:30;3.83;;;2.60;;
72728;SDS011;60843;52.062;4.508;2024-03-29T12:45:59;3.78;;;2.35;;
72728;SDS011;60843;52.062;4.508;2024-03-29T12:48:25;3.33;;;2.10;;
72728;SDS011;60843;52.062;4.508;2024-03-29T12:50:51;2.55;;;1.90;;
72728;SDS011;60843;52.062;4.508;2024-03-29T12:53:18;5.38;;;2.10;;
72728;SDS011;60843;52.062;4.508;2024-03-29T12:55:44;2.88;;;1.90;;
72728;SDS011;60843;52.062;4.508;2024-03-29T12:58:20;2.75;;;1.70;;
72728;SDS011;60843;52.062;4.508;2024-03-29T13:00:47;2.65;;;1.48;;
72728;SDS011;60843;52.062;4.508;2024-03-29T13:03:12;2.58;;;1.83;;
72728;SDS011;60843;52.062;4.508;2024-03-29T13:05:41;2.05;;;1.10;;
72728;SDS011;60843;52.062;4.508;2024-03-29T13:08:10;1.83;;;0.82;;
72728;SDS011;60843;52.062;4.508;2024-03-29T13:10:37;2.55;;;1.85;;
72728;SDS011;60843;52.062;4.508;2024-03-29T13:13:04;2.45;;;1.67;;
72728;SDS011;60843;52.062;4.508;2024-03-29T13:15:51;2.92;;;1.60;;
72728;SDS011;60843;52.062;4.508;2024-03-29T13:18:16;2.15;;;1.05;;
72728;SDS011;60843;52.062;4.508;2024-03-29T13:23:35;3.45;;;1.23;;
72728;SDS011;60843;52.062;4.508;2024-03-29T13:26:01;3.25;;;1.10;;
72728;SDS011;60843;52.062;4.508;2024-03-29T13:28:26;7.10;;;1.40;;
72728;SDS011;60843;52.062;4.508;2024-03-29T13:30:53;4.00;;;1.17;;
72728;SDS011;60843;52.062;4.508;2024-03-29T13:33:21;3.67;;;1.00;;
72728;SDS011;60843;52.062;4.508;2024-03-29T13:35:53;2.70;;;0.90;;
72728;SDS011;60843;52.062;4.508;2024-03-29T13:44:13;2.00;;;0.85;;
72728;SDS011;60843;52.062;4.508;2024-03-29T13:46:42;3.35;;;1.15;;
72728;SDS011;60843;52.062;4.508;2024-03-29T13:49:09;4.50;;;1.15;;
72728;SDS011;60843;52.062;4.508;2024-03-29T13:51:35;2.63;;;1.05;;
72728;SDS011;60843;52.062;4.508;2024-03-29T13:54:01;4.20;;;1.45;;
72728;SDS011;60843;52.062;4.508;2024-03-29T13:56:31;3.80;;;1.45;;
72728;SDS011;60843;52.062;4.508;2024-03-29T13:58:57;2.17;;;1.08;;
72728;SDS011;60843;52.062;4.508;2024-03-29T14:01:23;1.98;;;1.40;;
72728;SDS011;60843;52.062;4.508;2024-03-29T14:03:49;3.38;;;1.10;;
72728;SDS011;60843;52.062;4.508;2024-03-29T14:06:14;2.67;;;1.35;;
72728;SDS011;60843;52.062;4.508;2024-03-29T14:08:40;4.70;;;1.33;;
72728;SDS011;60843;52.062;4.508;2024-03-29T14:11:06;1.33;;;0.80;;
72728;SDS011;60843;52.062;4.508;2024-03-29T14:13:32;1.95;;;0.90;;
72728;SDS011;60843;52.062;4.508;2024-03-29T14:15:58;3.33;;;0.85;;
72728;SDS011;60843;52.062;4.508;2024-03-29T14:18:25;1.33;;;0.80;;
72728;SDS011;60843;52.062;4.508;2024-03-29T14:20:54;2.25;;;0.80;;
72728;SDS011;60843;52.062;4.508;2024-03-29T14:23:25;1.73;;;0.90;;
72728;SDS011;60843;52.062;4.508;2024-03-29T14:25:57;3.83;;;0.90;;
72728;SDS011;60843;52.062;4.508;2024-03-29T14:28:23;2.15;;;0.82;;
72728;SDS011;60843;52.062;4.508;2024-03-29T14:30:49;1.15;;;0.80;;
72728;SDS011;60843;52.062;4.508;2024-03-29T14:33:17;1.08;;;0.70;;
72728;SDS011;60843;52.062;4.508;2024-03-29T14:35:43;4.30;;;0.80;;
72728;SDS011;60843;52.062;4.508;2024-03-29T14:38:20;2.17;;;0.88;;
72728;SDS011;60843;52.062;4.508;2024-03-29T14:40:46;3.28;;;0.85;;
72728;SDS011;60843;52.062;4.508;2024-03-29T14:43:12;1.60;;;0.60;;
72728;SDS011;60843;52.062;4.508;2024-03-29T14:45:39;1.73;;;0.88;;
72728;SDS011;60843;52.062;4.508;2024-03-29T14:48:07;0.82;;;0.70;;
72728;SDS011;60843;52.062;4.508;2024-03-29T14:50:33;1.58;;;0.75;;
72728;SDS011;60843;52.062;4.508;2024-03-29T14:52:58;1.27;;;0.50;;
72728;SDS011;60843;52.062;4.508;2024-03-29T14:55:24;2.08;;;0.75;;
72728;SDS011;60843;52.062;4.508;2024-03-29T14:57:51;1.35;;;0.63;;
72728;SDS011;60843;52.062;4.508;2024-03-29T15:00:18;1.00;;;0.70;;
72728;SDS011;60843;52.062;4.508;2024-03-29T15:02:44;2.25;;;0.70;;
72728;SDS011;60843;52.062;4.508;2024-03-29T15:05:10;1.45;;;0.60;;
72728;SDS011;60843;52.062;4.508;2024-03-29T15:07:37;1.23;;;0.60;;
72728;SDS011;60843;52.062;4.508;2024-03-29T15:10:03;2.05;;;0.50;;
72728;SDS011;60843;52.062;4.508;2024-03-29T15:12:35;1.83;;;0.50;;
72728;SDS011;60843;52.062;4.508;2024-03-29T15:15:03;1.63;;;0.30;;
72728;SDS011;60843;52.062;4.508;2024-03-29T15:17:30;2.00;;;0.50;;
72728;SDS011;60843;52.062;4.508;2024-03-29T15:19:55;1.00;;;0.52;;
72728;SDS011;60843;52.062;4.508;2024-03-29T15:22:21;2.63;;;0.70;;
72728;SDS011;60843;52.062;4.508;2024-03-29T15:33:52;0.70;;;0.50;;
72728;SDS011;60843;52.062;4.508;2024-03-29T15:36:18;2.88;;;0.65;;
72728;SDS011;60843;52.062;4.508;2024-03-29T15:38:50;2.65;;;0.77;;
72728;SDS011;60843;52.062;4.508;2024-03-29T15:41:21;1.25;;;0.40;;
72728;SDS011;60843;52.062;4.508;2024-03-29T15:43:50;0.85;;;0.55;;
72728;SDS011;60843;52.062;4.508;2024-03-29T15:46:16;1.85;;;0.52;;
72728;SDS011;60843;52.062;4.508;2024-03-29T15:48:44;1.70;;;0.50;;
72728;SDS011;60843;52.062;4.508;2024-03-29T15:51:13;2.17;;;0.73;;
72728;SDS011;60843;52.062;4.508;2024-03-29T15:53:57;1.92;;;0.60;;
72728;SDS011;60843;52.062;4.508;2024-03-29T15:56:26;1.15;;;0.65;;
72728;SDS011;60843;52.062;4.508;2024-03-29T15:58:56;1.48;;;0.50;;
72728;SDS011;60843;52.062;4.508;2024-03-29T16:01:24;1.17;;;0.52;;
72728;SDS011;60843;52.062;4.508;2024-03-29T16:03:53;3.95;;;0.80;;